createdAt,value
2023-04-19T00:00:54.523Z,91.22
2023-04-19T00:01:54.754Z,90.91
2023-04-19T00:02:54.753Z,90.91
2023-04-19T00:03:54.558Z,91.01
2023-04-19T00:04:54.549Z,90.39
2023-04-19T00:05:54.492Z,90.19
2023-04-19T00:06:54.472Z,90.50
2023-04-19T00:07:54.461Z,90.34
2023-04-19T00:08:54.449Z,90.50
2023-04-19T00:09:54.435Z,90.60
2023-04-19T00:10:54.426Z,90.44
2023-04-19T00:11:54.424Z,90.60
2023-04-19T00:12:54.388Z,89.98
2023-04-19T00:13:54.385Z,90.50
2023-04-19T00:14:54.374Z,90.81
2023-04-19T00:15:54.365Z,90.09
2023-04-19T00:16:54.387Z,90.39
2023-04-19T00:17:54.600Z,90.39
2023-04-19T00:18:54.334Z,90.50
2023-04-19T00:19:54.334Z,90.54
2023-04-19T00:20:54.307Z,90.44
2023-04-19T00:21:54.314Z,90.54
2023-04-19T00:22:54.310Z,90.39
2023-04-19T00:23:54.276Z,90.64
2023-04-19T00:24:54.289Z,90.84
2023-04-19T00:25:54.256Z,90.95
2023-04-19T00:26:54.263Z,90.95
2023-04-19T00:27:54.234Z,90.44
2023-04-19T00:28:54.221Z,90.44
2023-04-19T00:29:54.228Z,90.84
2023-04-19T00:30:54.228Z,90.95
2023-04-19T00:31:54.229Z,90.64
2023-04-19T00:32:54.233Z,91.01
2023-04-19T00:33:54.177Z,90.64
2023-04-19T00:34:54.167Z,90.50
2023-04-19T00:35:54.153Z,90.64
2023-04-19T00:36:54.157Z,90.81
2023-04-19T00:37:54.129Z,90.91
2023-04-19T00:38:54.121Z,90.81
2023-04-19T00:39:54.125Z,90.70
2023-04-19T00:40:54.094Z,90.60
2023-04-19T00:41:54.106Z,90.60
2023-04-19T00:42:54.076Z,90.39
2023-04-19T00:43:54.064Z,90.54
2023-04-19T00:44:54.054Z,90.64
2023-04-19T00:45:54.088Z,90.75
2023-04-19T00:46:54.046Z,90.54
2023-04-19T00:47:54.075Z,90.64
2023-04-19T00:48:54.029Z,90.64
2023-04-19T00:49:54.012Z,91.16
2023-04-19T00:50:54.034Z,90.64
2023-04-19T00:51:53.998Z,90.54
2023-04-19T00:52:53.978Z,90.54
2023-04-19T00:53:53.972Z,90.39
2023-04-19T00:54:53.969Z,90.64
2023-04-19T00:55:53.944Z,89.92
2023-04-19T00:56:54.089Z,90.64
2023-04-19T00:57:53.927Z,90.75
2023-04-19T00:58:53.923Z,90.44
2023-04-19T00:59:53.904Z,90.44
2023-04-19T01:00:53.889Z,90.44
2023-04-19T01:01:53.918Z,90.44
2023-04-19T01:02:54.041Z,90.60
2023-04-19T01:03:53.962Z,90.23
2023-04-19T01:04:53.848Z,90.23
2023-04-19T01:05:53.848Z,90.50
2023-04-19T01:06:53.829Z,89.68
2023-04-19T01:07:53.830Z,90.30
2023-04-19T01:08:53.807Z,90.39
2023-04-19T01:09:53.795Z,90.70
2023-04-19T01:10:53.778Z,90.54
2023-04-19T01:11:53.775Z,89.83
2023-04-19T01:12:53.780Z,89.98
2023-04-19T01:13:53.753Z,90.39
2023-04-19T01:14:53.741Z,89.89
2023-04-19T01:15:53.757Z,89.89
2023-04-19T01:16:53.717Z,90.39
2023-04-19T01:17:53.834Z,90.60
2023-04-19T01:18:53.694Z,90.44
2023-04-19T01:19:53.688Z,90.19
2023-04-19T01:20:53.698Z,90.75
2023-04-19T01:21:53.707Z,90.60
2023-04-19T01:22:53.670Z,90.44
2023-04-19T01:23:53.651Z,90.39
2023-04-19T01:24:53.634Z,90.95
2023-04-19T01:25:53.629Z,91.36
2023-04-19T01:26:53.612Z,91.05
2023-04-19T01:27:53.615Z,91.16
2023-04-19T01:28:53.658Z,90.75
2023-04-19T01:29:53.583Z,90.54
2023-04-19T01:30:53.579Z,90.84
2023-04-19T01:31:53.756Z,91.36
2023-04-19T01:32:53.606Z,91.36
2023-04-19T01:33:53.552Z,91.26
2023-04-19T01:34:53.562Z,91.05
2023-04-19T01:35:53.522Z,91.26
2023-04-19T01:36:53.546Z,90.95
2023-04-19T01:37:53.520Z,91.16
2023-04-19T01:38:53.486Z,90.75
2023-04-19T01:39:53.480Z,90.64
2023-04-19T01:40:53.468Z,90.54
2023-04-19T01:41:53.463Z,90.44
2023-04-19T01:42:53.465Z,91.05
2023-04-19T01:43:53.444Z,91.05
2023-04-19T01:44:53.431Z,90.84
2023-04-19T01:45:53.425Z,90.54
2023-04-19T01:46:53.453Z,90.95
2023-04-19T01:47:53.461Z,90.23
2023-04-19T01:48:53.390Z,90.75
2023-04-19T01:49:53.390Z,90.75
2023-04-19T01:50:53.374Z,90.34
2023-04-19T01:51:53.386Z,90.34
2023-04-19T01:52:53.361Z,90.23
2023-04-19T01:53:53.341Z,90.23
2023-04-19T01:54:53.335Z,90.54
2023-04-19T01:55:53.332Z,90.44
2023-04-19T01:56:53.309Z,90.64
2023-04-19T01:57:54.596Z,90.44
2023-04-19T01:58:53.299Z,90.54
2023-04-19T01:59:53.314Z,90.50
2023-04-19T02:00:53.387Z,90.44
2023-04-19T02:01:53.327Z,90.54
2023-04-19T02:02:53.392Z,90.54
2023-04-19T02:03:53.348Z,90.95
2023-04-19T02:04:53.250Z,91.46
2023-04-19T02:05:53.224Z,91.46
2023-04-19T02:06:53.214Z,91.05
2023-04-19T02:07:53.213Z,91.46
2023-04-19T02:08:53.189Z,91.05
2023-04-19T02:09:53.206Z,90.84
2023-04-19T02:10:53.172Z,90.54
2023-04-19T02:11:53.163Z,90.75
2023-04-19T02:12:53.162Z,90.34
2023-04-19T02:13:53.181Z,90.84
2023-04-19T02:14:53.127Z,90.23
2023-04-19T02:15:53.139Z,90.64
2023-04-19T02:16:53.300Z,90.13
2023-04-19T02:17:53.212Z,90.54
2023-04-19T02:18:53.084Z,90.44
2023-04-19T02:19:53.086Z,90.44
2023-04-19T02:20:53.064Z,90.54
2023-04-19T02:21:53.061Z,90.75
2023-04-19T02:22:53.056Z,91.36
2023-04-19T02:23:53.032Z,92.02
2023-04-19T02:24:53.043Z,91.50
2023-04-19T02:25:53.018Z,91.46
2023-04-19T02:26:54.158Z,90.95
2023-04-19T02:27:54.160Z,91.16
2023-04-19T02:28:54.147Z,91.05
2023-04-19T02:29:54.128Z,90.54
2023-04-19T02:30:54.114Z,90.34
2023-04-19T02:31:54.134Z,90.44
2023-04-19T02:32:54.120Z,90.64
2023-04-19T02:33:54.094Z,90.79
2023-04-19T02:34:54.067Z,90.64
2023-04-19T02:35:54.060Z,90.07
2023-04-19T02:36:54.075Z,90.75
2023-04-19T02:37:54.056Z,90.75
2023-04-19T02:38:54.031Z,90.54
2023-04-19T02:39:54.022Z,90.44
2023-04-19T02:40:54.028Z,90.44
2023-04-19T02:41:54.062Z,90.23
2023-04-19T02:42:54.003Z,90.23
2023-04-19T02:43:53.975Z,90.34
2023-04-19T02:44:54.004Z,89.76
2023-04-19T02:45:54.018Z,89.31
2023-04-19T02:46:54.962Z,88.70
2023-04-19T02:47:54.035Z,89.31
2023-04-19T02:48:53.947Z,88.80
2023-04-19T02:49:53.922Z,88.49
2023-04-19T02:50:53.932Z,89.04
2023-04-19T02:51:53.894Z,88.49
2023-04-19T02:52:53.916Z,87.88
2023-04-19T02:53:53.899Z,88.84
2023-04-19T02:54:53.874Z,87.51
2023-04-19T02:55:53.892Z,86.69
2023-04-19T02:56:53.883Z,86.07
2023-04-19T02:57:53.869Z,85.05
2023-04-19T02:58:53.843Z,85.15
2023-04-19T02:59:53.849Z,85.39
2023-04-19T03:00:53.871Z,82.53
2023-04-19T03:01:53.799Z,82.73
2023-04-19T03:02:54.003Z,82.12
2023-04-19T03:03:53.865Z,82.32
2023-04-19T03:04:53.769Z,82.12
2023-04-19T03:05:53.767Z,82.12
2023-04-19T03:06:53.757Z,81.91
2023-04-19T03:07:53.761Z,81.71
2023-04-19T03:08:53.776Z,82.32
2023-04-19T03:09:53.735Z,82.12
2023-04-19T03:10:53.710Z,81.60
2023-04-19T03:11:53.705Z,81.20
2023-04-19T03:12:53.714Z,81.81
2023-04-19T03:13:53.697Z,81.29
2023-04-19T03:14:53.751Z,81.40
2023-04-19T03:15:53.724Z,82.01
2023-04-19T03:16:53.655Z,82.63
2023-04-19T03:17:53.680Z,82.12
2023-04-19T03:18:53.644Z,82.42
2023-04-19T03:19:53.618Z,82.49
2023-04-19T03:20:53.599Z,82.22
2023-04-19T03:21:53.609Z,82.32
2023-04-19T03:22:53.609Z,82.53
2023-04-19T03:23:53.599Z,83.34
2023-04-19T03:24:53.565Z,83.25
2023-04-19T03:25:53.567Z,83.34
2023-04-19T03:26:53.541Z,83.14
2023-04-19T03:27:53.543Z,82.63
2023-04-19T03:28:53.514Z,82.63
2023-04-19T03:29:53.509Z,82.73
2023-04-19T03:30:53.523Z,82.67
2023-04-19T03:31:53.485Z,82.63
2023-04-19T03:32:53.538Z,82.93
2023-04-19T03:33:53.488Z,82.93
2023-04-19T03:34:53.446Z,82.32
2023-04-19T03:35:53.437Z,81.60
2023-04-19T03:36:53.446Z,80.27
2023-04-19T03:37:53.436Z,80.47
2023-04-19T03:38:53.427Z,80.47
2023-04-19T03:39:53.391Z,80.58
2023-04-19T03:40:53.390Z,82.05
2023-04-19T03:41:53.380Z,80.41
2023-04-19T03:42:53.388Z,80.41
2023-04-19T03:43:53.397Z,81.02
2023-04-19T03:44:53.340Z,80.99
2023-04-19T03:45:53.366Z,82.01
2023-04-19T03:46:53.319Z,81.71
2023-04-19T03:47:53.357Z,80.58
2023-04-19T03:48:53.330Z,80.21
2023-04-19T03:49:53.317Z,81.34
2023-04-19T03:50:53.297Z,82.01
2023-04-19T03:51:53.294Z,80.51
2023-04-19T03:52:53.290Z,80.51
2023-04-19T03:53:53.271Z,82.26
2023-04-19T03:54:53.249Z,81.54
2023-04-19T03:55:53.238Z,80.21
2023-04-19T03:56:53.246Z,79.69
2023-04-19T03:57:53.237Z,80.41
2023-04-19T03:58:53.218Z,80.10
2023-04-19T03:59:53.205Z,79.80
2023-04-19T04:00:53.188Z,79.18
2023-04-19T04:01:53.199Z,79.38
2023-04-19T04:02:53.374Z,80.31
2023-04-19T04:03:53.594Z,80.00
2023-04-19T04:04:53.241Z,79.80
2023-04-19T04:05:53.129Z,79.90
2023-04-19T04:06:53.124Z,80.00
2023-04-19T04:07:53.115Z,80.72
2023-04-19T04:08:53.129Z,81.13
2023-04-19T04:09:53.080Z,80.47
2023-04-19T04:10:53.090Z,80.99
2023-04-19T04:11:53.071Z,80.31
2023-04-19T04:12:53.066Z,79.90
2023-04-19T04:13:53.062Z,80.72
2023-04-19T04:14:53.042Z,80.21
2023-04-19T04:15:53.050Z,80.00
2023-04-19T04:16:53.039Z,80.72
2023-04-19T04:17:53.064Z,78.46
2023-04-19T04:18:54.016Z,79.69
2023-04-19T04:19:52.993Z,79.90
2023-04-19T04:20:52.980Z,80.31
2023-04-19T04:21:52.974Z,80.31
2023-04-19T04:22:52.947Z,78.56
2023-04-19T04:23:52.951Z,78.67
2023-04-19T04:24:52.930Z,77.84
2023-04-19T04:25:52.946Z,77.88
2023-04-19T04:26:52.923Z,78.91
2023-04-19T04:27:52.954Z,77.47
2023-04-19T04:28:52.918Z,77.68
2023-04-19T04:29:52.897Z,77.44
2023-04-19T04:30:53.875Z,77.64
2023-04-19T04:31:52.966Z,77.78
2023-04-19T04:32:52.925Z,77.47
2023-04-19T04:33:52.889Z,78.09
2023-04-19T04:34:52.843Z,77.58
2023-04-19T04:35:52.865Z,77.78
2023-04-19T04:36:52.834Z,77.98
2023-04-19T04:37:52.827Z,77.88
2023-04-19T04:38:52.833Z,77.88
2023-04-19T04:39:52.816Z,77.26
2023-04-19T04:40:52.805Z,77.98
2023-04-19T04:41:52.798Z,78.39
2023-04-19T04:42:52.772Z,78.39
2023-04-19T04:44:08.250Z,77.54
2023-04-19T04:44:54.754Z,78.81
2023-04-19T04:45:52.795Z,78.60
2023-04-19T04:46:52.731Z,78.77
2023-04-19T04:47:52.879Z,77.47
2023-04-19T04:48:52.720Z,78.50
2023-04-19T04:49:52.711Z,78.70
2023-04-19T04:50:52.733Z,79.63
2023-04-19T04:51:52.729Z,78.60
2023-04-19T04:52:52.673Z,79.52
2023-04-19T04:53:52.673Z,77.88
2023-04-19T04:54:52.664Z,78.09
2023-04-19T04:55:52.660Z,78.29
2023-04-19T04:56:52.691Z,78.60
2023-04-19T04:57:52.628Z,78.60
2023-04-19T04:58:52.615Z,78.29
2023-04-19T04:59:52.630Z,78.29
2023-04-19T05:00:52.647Z,77.78
2023-04-19T05:01:52.585Z,77.17
2023-04-19T05:02:52.688Z,78.09
2023-04-19T05:03:52.578Z,78.19
2023-04-19T05:04:52.589Z,77.37
2023-04-19T05:05:52.544Z,77.23
2023-04-19T05:06:52.546Z,76.34
2023-04-19T05:07:52.531Z,77.06
2023-04-19T05:08:52.501Z,77.54
2023-04-19T05:09:52.491Z,76.45
2023-04-19T05:10:52.484Z,76.96
2023-04-19T05:11:52.466Z,76.86
2023-04-19T05:12:52.492Z,77.06
2023-04-19T05:13:53.468Z,76.65
2023-04-19T05:14:52.434Z,75.49
2023-04-19T05:15:52.474Z,75.73
2023-04-19T05:16:52.436Z,76.20
2023-04-19T05:17:52.570Z,75.59
2023-04-19T05:18:52.400Z,75.90
2023-04-19T05:19:52.425Z,75.42
2023-04-19T05:20:52.373Z,75.32
2023-04-19T05:21:52.369Z,76.00
2023-04-19T05:22:52.374Z,75.59
2023-04-19T05:23:52.358Z,75.38
2023-04-19T05:24:52.353Z,74.77
2023-04-19T05:25:52.329Z,75.28
2023-04-19T05:26:52.313Z,75.38
2023-04-19T05:27:52.311Z,75.38
2023-04-19T05:28:52.313Z,75.38
2023-04-19T05:29:52.284Z,75.08
2023-04-19T05:30:52.277Z,74.77
2023-04-19T05:31:52.364Z,74.87
2023-04-19T05:32:53.313Z,74.15
2023-04-19T05:33:52.269Z,74.36
2023-04-19T05:34:52.244Z,74.36
2023-04-19T05:35:52.219Z,75.04
2023-04-19T05:36:52.209Z,75.90
2023-04-19T05:37:52.204Z,74.53
2023-04-19T05:38:52.243Z,74.53
2023-04-19T05:39:52.205Z,74.12
2023-04-19T05:40:52.185Z,74.70
2023-04-19T05:41:52.152Z,73.88
2023-04-19T05:42:52.136Z,74.70
2023-04-19T05:43:53.166Z,72.75
2023-04-19T05:44:52.129Z,73.57
2023-04-19T05:45:52.189Z,74.70
2023-04-19T05:46:52.109Z,72.75
2023-04-19T05:47:52.143Z,72.65
2023-04-19T05:48:52.121Z,72.96
2023-04-19T05:49:52.087Z,73.16
2023-04-19T05:50:52.069Z,72.75
2023-04-19T05:51:52.052Z,72.96
2023-04-19T05:52:52.038Z,72.41
2023-04-19T05:53:52.672Z,71.39
2023-04-19T05:54:52.018Z,71.80
2023-04-19T05:55:53.037Z,71.49
2023-04-19T05:56:52.020Z,71.18
2023-04-19T05:57:51.989Z,71.49
2023-04-19T05:58:51.989Z,71.69
2023-04-19T05:59:52.002Z,70.57
2023-04-19T06:00:51.986Z,70.36
2023-04-19T06:01:51.967Z,70.67
2023-04-19T06:02:53.086Z,72.00
2023-04-19T06:03:52.295Z,72.20
2023-04-19T06:04:51.959Z,71.69
2023-04-19T06:05:52.064Z,71.42
2023-04-19T06:06:51.949Z,72.86
2023-04-19T06:07:55.621Z,71.69
2023-04-19T06:08:54.807Z,71.69
2023-04-19T06:09:52.963Z,72.00
2023-04-19T06:10:55.759Z,71.66
2023-04-19T06:11:53.959Z,70.26
2023-04-19T06:12:51.936Z,70.16
2023-04-19T06:13:52.040Z,70.16
2023-04-19T06:14:52.060Z,70.16
2023-04-19T06:15:52.017Z,70.06
2023-04-19T06:16:51.955Z,70.19
2023-04-19T06:17:52.006Z,70.70
2023-04-19T06:18:51.847Z,72.24
2023-04-19T06:19:51.825Z,71.28
2023-04-19T06:20:51.793Z,71.52
2023-04-19T06:21:51.830Z,70.70
2023-04-19T06:22:51.860Z,71.93
2023-04-19T06:23:51.899Z,71.35
2023-04-19T06:24:51.806Z,70.94
2023-04-19T06:25:51.821Z,71.73
2023-04-19T06:26:51.781Z,72.27
2023-04-19T06:27:51.799Z,72.00
2023-04-19T06:28:51.719Z,71.90
2023-04-19T06:29:51.687Z,71.80
2023-04-19T06:30:51.783Z,72.31
2023-04-19T06:31:51.829Z,72.00
2023-04-19T06:32:51.741Z,72.61
2023-04-19T06:33:51.710Z,72.61
2023-04-19T06:34:51.719Z,71.59
2023-04-19T06:35:51.731Z,71.28
2023-04-19T06:36:51.734Z,72.00
2023-04-19T06:37:52.719Z,71.90
2023-04-19T06:38:51.682Z,71.45
2023-04-19T06:39:51.719Z,72.31
2023-04-19T06:40:51.690Z,71.59
2023-04-19T06:41:51.866Z,72.41
2023-04-19T06:42:51.742Z,71.48
2023-04-19T06:43:51.616Z,71.80
2023-04-19T06:44:51.691Z,71.90
2023-04-19T06:45:51.950Z,71.28
2023-04-19T06:46:51.673Z,72.72
2023-04-19T06:47:51.590Z,71.97
2023-04-19T06:48:51.485Z,71.28
2023-04-19T06:49:51.520Z,71.04
2023-04-19T06:50:51.444Z,71.86
2023-04-19T06:51:51.448Z,72.99
2023-04-19T06:52:51.416Z,70.22
2023-04-19T06:53:52.401Z,70.46
2023-04-19T06:54:51.416Z,71.76
2023-04-19T06:55:51.385Z,70.97
2023-04-19T06:56:51.502Z,70.77
2023-04-19T06:57:51.467Z,70.15
2023-04-19T06:58:52.955Z,71.21
2023-04-19T06:59:51.507Z,71.62
2023-04-19T07:00:51.599Z,71.31
2023-04-19T07:01:51.612Z,71.69
2023-04-19T07:02:51.462Z,72.03
2023-04-19T07:03:51.552Z,71.93
2023-04-19T07:04:51.488Z,71.48
2023-04-19T07:05:51.395Z,71.39
2023-04-19T07:06:52.146Z,71.25
2023-04-19T07:07:51.329Z,70.36
2023-04-19T07:08:51.472Z,70.03
2023-04-19T07:09:51.855Z,69.85
2023-04-19T07:10:51.708Z,70.00
2023-04-19T07:11:51.417Z,65.03
2023-04-19T07:12:51.305Z,62.27
2023-04-19T07:13:51.359Z,62.14
2023-04-19T07:14:51.485Z,62.52
2023-04-19T07:15:51.380Z,62.80
2023-04-19T07:16:52.699Z,60.55
2023-04-19T07:17:51.305Z,61.65
2023-04-19T07:18:51.265Z,60.42
2023-04-19T07:19:51.309Z,60.39
2023-04-19T07:20:51.299Z,60.57
2023-04-19T07:21:51.254Z,59.30
2023-04-19T07:22:51.308Z,58.56
2023-04-19T07:23:51.633Z,59.01
2023-04-19T07:24:51.344Z,56.60
2023-04-19T07:25:51.135Z,57.38
2023-04-19T07:26:51.178Z,56.62
2023-04-19T07:27:52.278Z,55.50
2023-04-19T07:28:51.120Z,55.71
2023-04-19T07:29:51.071Z,56.97
2023-04-19T07:30:51.146Z,58.13
2023-04-19T07:31:51.120Z,55.04
2023-04-19T07:32:52.095Z,55.27
2023-04-19T07:33:51.099Z,56.38
2023-04-19T07:34:51.129Z,54.11
2023-04-19T07:35:51.213Z,54.86
2023-04-19T07:36:51.067Z,50.74
2023-04-19T07:37:51.025Z,51.15
2023-04-19T07:38:50.990Z,51.68
2023-04-19T07:39:51.018Z,54.00
2023-04-19T07:40:50.992Z,51.20
2023-04-19T07:41:50.969Z,51.37
2023-04-19T07:42:51.830Z,51.20
2023-04-19T07:43:50.909Z,50.87
2023-04-19T07:44:50.890Z,50.61
2023-04-19T07:45:51.920Z,50.66
2023-04-19T07:46:51.064Z,53.27
2023-04-19T07:47:50.905Z,53.47
2023-04-19T07:48:51.951Z,53.58
2023-04-19T07:49:51.280Z,54.21
2023-04-19T07:50:58.752Z,52.28
2023-04-19T07:51:50.940Z,49.74
2023-04-19T07:52:50.870Z,49.54
2023-04-19T07:53:50.820Z,48.16
2023-04-19T07:54:50.836Z,49.87
2023-04-19T07:55:50.876Z,50.04
2023-04-19T07:56:50.816Z,47.51
2023-04-19T07:57:50.790Z,48.11
2023-04-19T07:59:04.406Z,47.79
2023-04-19T07:59:52.784Z,43.96
2023-04-19T08:00:50.902Z,45.60
2023-04-19T08:01:50.895Z,46.09
2023-04-19T08:02:50.944Z,45.90
2023-04-19T08:03:51.005Z,47.10
2023-04-19T08:04:51.158Z,45.98
2023-04-19T08:05:51.000Z,45.70
2023-04-19T08:06:50.733Z,45.80
2023-04-19T08:07:50.777Z,45.44
2023-04-19T08:08:50.783Z,45.95
2023-04-19T08:09:50.889Z,46.28
2023-04-19T08:10:50.752Z,48.11
2023-04-19T08:11:50.718Z,46.25
2023-04-19T08:13:03.699Z,47.29
2023-04-19T08:14:04.419Z,48.39
2023-04-19T08:15:02.547Z,48.69
2023-04-19T08:17:51.684Z,46.15
2023-04-19T08:18:50.922Z,46.66
2023-04-19T08:19:50.566Z,47.78
2023-04-19T08:20:50.602Z,47.86
2023-04-19T08:21:50.575Z,45.95
2023-04-19T08:22:50.783Z,48.39
2023-04-19T08:23:52.624Z,46.05
2023-04-19T08:24:50.507Z,48.11
2023-04-19T08:25:50.547Z,48.59
2023-04-19T08:26:50.540Z,50.37
2023-04-19T08:27:50.589Z,47.20
2023-04-19T08:28:50.713Z,45.70
2023-04-19T08:29:50.569Z,43.77
2023-04-19T08:30:50.607Z,47.83
2023-04-19T08:31:50.572Z,47.99
2023-04-19T08:32:50.654Z,50.59
2023-04-19T08:33:50.438Z,44.50
2023-04-19T08:34:50.509Z,44.42
2023-04-19T08:35:50.490Z,43.02
2023-04-19T08:36:56.189Z,41.13
2023-04-19T08:37:52.396Z,43.37
2023-04-19T08:39:01.973Z,45.37
2023-04-19T08:39:52.445Z,45.58
2023-04-19T08:40:50.308Z,42.74
2023-04-19T08:41:59.050Z,44.36
2023-04-19T08:42:52.300Z,44.65
2023-04-19T08:43:50.296Z,41.80
2023-04-19T08:45:06.343Z,41.93
2023-04-19T08:45:52.337Z,40.81
2023-04-19T08:46:50.273Z,42.63
2023-04-19T08:47:59.806Z,41.31
2023-04-19T08:48:52.577Z,40.30
2023-04-19T08:50:03.802Z,42.96
2023-04-19T08:51:03.455Z,41.31
2023-04-19T08:51:52.353Z,42.86
2023-04-19T08:52:56.004Z,40.83
2023-04-19T08:53:52.209Z,40.42
2023-04-19T08:54:50.190Z,40.03
2023-04-19T08:56:08.844Z,42.98
2023-04-19T08:56:52.335Z,42.94
2023-04-19T08:57:50.142Z,42.51
2023-04-19T08:59:51.227Z,40.59
2023-04-19T09:00:50.174Z,41.91
2023-04-19T09:01:50.115Z,40.50
2023-04-19T09:02:50.395Z,41.72
2023-04-19T09:04:02.282Z,41.40
2023-04-19T09:04:52.446Z,43.49
2023-04-19T09:05:50.443Z,41.46
2023-04-19T09:06:50.092Z,41.14
2023-04-19T09:07:50.138Z,42.43
2023-04-19T09:08:50.008Z,40.11
2023-04-19T09:10:00.064Z,39.92
2023-04-19T09:10:51.960Z,40.31
2023-04-19T09:11:50.993Z,40.31
2023-04-19T09:12:50.066Z,40.69
2023-04-19T09:13:51.276Z,40.71
2023-04-19T09:15:01.306Z,40.63
2023-04-19T09:15:51.900Z,38.79
2023-04-19T09:16:49.934Z,39.82
2023-04-19T09:17:49.992Z,41.74
2023-04-19T09:18:59.985Z,40.95
2023-04-19T09:19:51.886Z,41.48
2023-04-19T09:20:49.957Z,40.06
2023-04-19T09:21:49.897Z,41.19
2023-04-19T09:22:49.897Z,41.09
2023-04-19T09:23:49.911Z,40.20
2023-04-19T09:26:15.202Z,42.49
2023-04-19T09:26:51.760Z,42.55
2023-04-19T09:27:49.844Z,40.71
2023-04-19T09:28:49.881Z,41.71
2023-04-19T09:29:49.939Z,41.30
2023-04-19T09:31:03.227Z,40.29
2023-04-19T09:31:52.367Z,40.61
2023-04-19T09:32:50.929Z,41.95
2023-04-19T09:33:49.839Z,41.74
2023-04-19T09:34:49.773Z,41.12
2023-04-19T09:35:49.734Z,41.30
2023-04-19T09:36:54.564Z,41.69
2023-04-19T09:38:04.718Z,39.15
2023-04-19T09:38:51.746Z,40.06
2023-04-19T09:39:49.753Z,39.15
2023-04-19T09:40:49.684Z,37.76
2023-04-19T09:41:49.664Z,39.78
2023-04-19T09:45:16.895Z,40.41
2023-04-19T09:45:51.604Z,41.09
2023-04-19T09:46:52.374Z,37.98
2023-04-19T09:47:49.609Z,38.08
2023-04-19T09:48:49.657Z,39.90
2023-04-19T09:49:49.931Z,40.39
2023-04-19T09:50:56.549Z,38.97
2023-04-19T09:51:51.545Z,37.52
2023-04-19T09:52:49.756Z,38.11
2023-04-19T09:53:49.571Z,37.37
2023-04-19T09:54:49.596Z,36.86
2023-04-19T09:56:00.412Z,35.24
2023-04-19T09:56:51.626Z,34.95
2023-04-19T09:57:49.576Z,35.95
2023-04-19T09:58:52.814Z,35.66
2023-04-19T09:59:51.501Z,35.55
2023-04-19T10:00:53.089Z,34.84
2023-04-19T10:01:51.604Z,34.82
2023-04-19T10:02:51.950Z,36.94
2023-04-19T10:03:51.578Z,33.83
2023-04-19T10:05:03.264Z,35.24
2023-04-19T10:05:51.521Z,33.14
2023-04-19T10:07:13.925Z,34.47
2023-04-19T10:07:51.462Z,33.66
2023-04-19T10:08:49.480Z,34.27
2023-04-19T10:09:53.612Z,34.95
2023-04-19T10:10:51.485Z,35.97
2023-04-19T10:11:51.213Z,37.97
2023-04-19T10:13:07.411Z,35.55
2023-04-19T10:13:51.400Z,37.16
2023-04-19T10:14:49.478Z,37.21
2023-04-19T10:15:52.747Z,32.30
2023-04-19T10:16:51.378Z,33.51
2023-04-19T10:17:49.389Z,32.53
2023-04-19T10:18:49.300Z,34.82
2023-04-19T10:19:49.335Z,33.01
2023-04-19T10:20:49.340Z,31.71
2023-04-19T10:21:49.324Z,32.62
2023-04-19T10:22:49.403Z,31.00
2023-04-19T10:23:49.336Z,33.33
2023-04-19T10:24:49.406Z,32.72
2023-04-19T10:25:50.056Z,32.90
2023-04-19T10:26:49.316Z,33.01
2023-04-19T10:27:49.277Z,32.30
2023-04-19T10:28:49.344Z,33.01
2023-04-19T10:29:49.184Z,31.39
2023-04-19T10:30:49.256Z,34.41
2023-04-19T10:31:49.233Z,35.10
2023-04-19T10:32:49.236Z,32.07
2023-04-19T10:33:49.255Z,35.28
2023-04-19T10:34:49.231Z,30.96
2023-04-19T10:35:49.292Z,37.62
2023-04-19T10:36:49.197Z,33.26
2023-04-19T10:37:49.123Z,37.09
2023-04-19T10:38:49.134Z,37.40
2023-04-19T10:39:49.159Z,32.44
2023-04-19T10:40:49.152Z,32.83
2023-04-19T10:41:49.102Z,29.81
2023-04-19T10:42:49.053Z,28.83
2023-04-19T10:43:49.039Z,29.16
2023-04-19T10:44:49.052Z,32.59
2023-04-19T10:45:49.052Z,31.67
2023-04-19T10:46:48.960Z,31.26
2023-04-19T10:47:48.996Z,30.93
2023-04-19T10:48:48.990Z,28.71
2023-04-19T10:49:48.972Z,30.32
2023-04-19T10:50:48.971Z,32.34
2023-04-19T10:51:49.006Z,30.80
2023-04-19T10:52:48.950Z,30.11
2023-04-19T10:53:49.015Z,32.29
2023-04-19T10:54:48.913Z,30.68
2023-04-19T10:55:48.963Z,30.77
2023-04-19T10:56:48.960Z,26.77
2023-04-19T10:57:48.877Z,31.22
2023-04-19T10:58:48.976Z,30.62
2023-04-19T10:59:48.846Z,30.31
2023-04-19T11:00:48.823Z,30.19
2023-04-19T11:01:48.879Z,30.70
2023-04-19T11:02:48.939Z,30.10
2023-04-19T11:03:48.965Z,31.89
2023-04-19T11:04:48.894Z,32.98
2023-04-19T11:05:48.767Z,28.37
2023-04-19T11:06:48.775Z,27.89
2023-04-19T11:07:48.766Z,30.02
2023-04-19T11:08:48.734Z,32.64
2023-04-19T11:09:48.755Z,29.82
2023-04-19T11:10:48.751Z,30.66
2023-04-19T11:11:48.771Z,29.64
2023-04-19T11:12:48.736Z,31.24
2023-04-19T11:13:48.768Z,30.54
2023-04-19T11:14:48.742Z,30.26
2023-04-19T11:15:48.746Z,32.24
2023-04-19T11:16:48.801Z,29.94
2023-04-19T11:17:52.871Z,28.77
2023-04-19T11:18:49.643Z,31.49
2023-04-19T11:19:48.677Z,31.87
2023-04-19T11:20:48.673Z,30.84
2023-04-19T11:21:48.718Z,33.68
2023-04-19T11:22:48.630Z,34.30
2023-04-19T11:23:49.127Z,31.78
2023-04-19T11:24:48.578Z,32.18
2023-04-19T11:25:48.592Z,32.04
2023-04-19T11:26:48.659Z,30.82
2023-04-19T11:27:48.560Z,30.31
2023-04-19T11:28:48.654Z,29.30
2023-04-19T11:29:48.566Z,29.43
2023-04-19T11:30:48.556Z,31.43
2023-04-19T11:31:48.618Z,34.63
2023-04-19T11:32:48.801Z,31.00
2023-04-19T11:33:48.512Z,32.70
2023-04-19T11:34:48.468Z,33.60
2023-04-19T11:35:48.485Z,30.40
2023-04-19T11:36:48.467Z,30.19
2023-04-19T11:37:48.444Z,30.99
2023-04-19T11:38:48.428Z,30.19
2023-04-19T11:39:48.432Z,30.10
2023-04-19T11:40:48.426Z,30.70
2023-04-19T11:41:48.421Z,30.70
2023-04-19T11:42:48.389Z,35.19
2023-04-19T11:43:48.433Z,31.76
2023-04-19T11:45:03.502Z,31.46
2023-04-19T11:45:48.372Z,30.18
2023-04-19T11:46:48.402Z,33.20
2023-04-19T11:47:48.393Z,30.36
2023-04-19T11:48:48.375Z,32.67
2023-04-19T11:51:14.382Z,32.33
2023-04-19T11:52:14.398Z,31.80
2023-04-19T11:53:14.374Z,30.71
2023-04-19T11:54:14.534Z,32.62
2023-04-19T11:55:14.363Z,30.55
2023-04-19T11:56:14.363Z,29.77
2023-04-19T11:57:14.345Z,29.98
2023-04-19T11:58:14.341Z,32.58
2023-04-19T11:59:14.306Z,30.58
2023-04-19T12:00:14.312Z,31.99
2023-04-19T12:01:14.283Z,33.59
2023-04-19T12:02:14.597Z,30.15
2023-04-19T12:03:14.476Z,30.94
2023-04-19T12:04:14.648Z,29.85
2023-04-19T12:05:14.553Z,30.77
2023-04-19T12:06:14.265Z,33.00
2023-04-19T12:07:14.396Z,30.70
2023-04-19T12:08:14.248Z,30.50
2023-04-19T12:09:14.203Z,31.81
2023-04-19T12:10:14.204Z,31.69
2023-04-19T12:11:14.203Z,32.23
2023-04-19T12:12:14.199Z,33.11
2023-04-19T12:13:14.170Z,30.31
2023-04-19T12:14:14.829Z,30.01
2023-04-19T12:15:15.849Z,33.04
2023-04-19T12:16:14.287Z,32.51
2023-04-19T12:17:14.179Z,32.63
2023-04-19T12:18:14.505Z,34.34
2023-04-19T12:19:14.310Z,32.11
2023-04-19T12:20:14.098Z,33.35
2023-04-19T12:21:14.078Z,34.36
2023-04-19T12:22:14.127Z,35.30
2023-04-19T12:23:14.155Z,34.39
2023-04-19T12:24:21.022Z,35.58
2023-04-19T12:25:14.074Z,33.76
2023-04-19T12:26:14.059Z,35.85
2023-04-19T12:27:15.831Z,34.16
2023-04-19T12:28:14.014Z,34.56
2023-04-19T12:29:14.136Z,35.48
2023-04-19T12:30:14.016Z,36.19
2023-04-19T12:31:13.988Z,34.27
2023-04-19T12:32:14.169Z,33.56
2023-04-19T12:33:13.999Z,33.78
2023-04-19T12:34:13.967Z,33.41
2023-04-19T12:35:13.947Z,33.34
2023-04-19T12:36:13.911Z,35.16
2023-04-19T12:37:13.930Z,35.24
2023-04-19T12:38:13.927Z,34.45
2023-04-19T12:39:14.028Z,36.27
2023-04-19T12:40:13.918Z,35.85
2023-04-19T12:41:13.887Z,37.24
2023-04-19T12:42:13.846Z,37.53
2023-04-19T12:43:13.877Z,34.69
2023-04-19T12:44:13.833Z,34.50
2023-04-19T12:45:13.819Z,34.50
2023-04-19T12:46:13.839Z,33.28
2023-04-19T12:47:13.792Z,34.17
2023-04-19T12:48:13.973Z,34.88
2023-04-19T12:49:14.095Z,32.44
2023-04-19T12:50:13.819Z,35.78
2023-04-19T12:51:13.760Z,33.09
2023-04-19T12:52:13.794Z,33.11
2023-04-19T12:53:13.766Z,32.69
2023-04-19T12:54:13.748Z,32.78
2023-04-19T12:55:13.713Z,32.35
2023-04-19T12:56:13.696Z,35.19
2023-04-19T12:57:13.693Z,32.75
2023-04-19T12:58:13.689Z,32.53
2023-04-19T12:59:14.238Z,32.53
2023-04-19T13:00:13.690Z,34.02